sensor_id;sensor_type;location;lat;lon;timestamp;temperature;humidity
48551;DHT22;34397;51.176;6.738;2023-04-24T00:00:46;10.80;67.80
48551;DHT22;34397;51.176;6.738;2023-04-24T00:03:18;10.70;67.40
48551;DHT22;34397;51.176;6.738;2023-04-24T00:05:51;10.70;68.00
48551;DHT22;34397;51.176;6.738;2023-04-24T00:08:24;10.60;68.10
48551;DHT22;34397;51.176;6.738;2023-04-24T00:10:57;10.60;68.10
48551;DHT22;34397;51.176;6.738;2023-04-24T00:13:29;10.60;67.70
48551;DHT22;34397;51.176;6.738;2023-04-24T00:16:01;10.60;68.30
48551;DHT22;34397;51.176;6.738;2023-04-24T00:18:32;10.60;68.10
48551;DHT22;34397;51.176;6.738;2023-04-24T00:21:05;10.50;67.50
48551;DHT22;34397;51.176;6.738;2023-04-24T00:23:38;10.50;67.80
48551;DHT22;34397;51.176;6.738;2023-04-24T00:26:10;10.50;67.90
48551;DHT22;34397;51.176;6.738;2023-04-24T00:28:42;10.40;68.30
48551;DHT22;34397;51.176;6.738;2023-04-24T00:31:17;10.40;67.80
48551;DHT22;34397;51.176;6.738;2023-04-24T00:33:49;10.40;68.00
48551;DHT22;34397;51.176;6.738;2023-04-24T00:36:21;10.40;67.30
48551;DHT22;34397;51.176;6.738;2023-04-24T00:38:55;10.40;67.40
48551;DHT22;34397;51.176;6.738;2023-04-24T00:41:26;10.30;67.30
48551;DHT22;34397;51.176;6.738;2023-04-24T00:43:58;10.30;67.80
48551;DHT22;34397;51.176;6.738;2023-04-24T00:46:31;10.40;68.10
48551;DHT22;34397;51.176;6.738;2023-04-24T00:49:04;10.40;67.70
48551;DHT22;34397;51.176;6.738;2023-04-24T00:51:36;10.40;66.70
48551;DHT22;34397;51.176;6.738;2023-04-24T00:54:10;10.40;66.80
48551;DHT22;34397;51.176;6.738;2023-04-24T00:56:42;10.30;65.90
48551;DHT22;34397;51.176;6.738;2023-04-24T00:59:16;10.30;66.70
48551;DHT22;34397;51.176;6.738;2023-04-24T01:01:48;10.30;66.30
48551;DHT22;34397;51.176;6.738;2023-04-24T01:04:20;10.40;64.80
48551;DHT22;34397;51.176;6.738;2023-04-24T01:06:53;10.20;65.00
48551;DHT22;34397;51.176;6.738;2023-04-24T01:09:27;10.20;65.50
48551;DHT22;34397;51.176;6.738;2023-04-24T01:11:59;10.10;66.10
48551;DHT22;34397;51.176;6.738;2023-04-24T01:14:31;10.10;66.60
48551;DHT22;34397;51.176;6.738;2023-04-24T01:17:03;10.00;65.60
48551;DHT22;34397;51.176;6.738;2023-04-24T01:19:36;10.00;66.60
48551;DHT22;34397;51.176;6.738;2023-04-24T01:22:10;9.90;66.80
48551;DHT22;34397;51.176;6.738;2023-04-24T01:24:44;9.80;67.00
48551;DHT22;34397;51.176;6.738;2023-04-24T01:27:19;9.80;67.70
48551;DHT22;34397;51.176;6.738;2023-04-24T01:29:51;9.80;67.70
48551;DHT22;34397;51.176;6.738;2023-04-24T01:32:24;9.70;67.80
48551;DHT22;34397;51.176;6.738;2023-04-24T01:34:56;9.60;68.10
48551;DHT22;34397;51.176;6.738;2023-04-24T01:37:31;9.50;68.50
48551;DHT22;34397;51.176;6.738;2023-04-24T01:40:04;9.40;68.70
48551;DHT22;34397;51.176;6.738;2023-04-24T01:42:37;9.30;68.90
48551;DHT22;34397;51.176;6.738;2023-04-24T01:45:11;9.30;69.30
48551;DHT22;34397;51.176;6.738;2023-04-24T01:47:44;9.20;69.40
48551;DHT22;34397;51.176;6.738;2023-04-24T01:50:17;9.20;69.80
48551;DHT22;34397;51.176;6.738;2023-04-24T01:52:50;9.20;70.20
48551;DHT22;34397;51.176;6.738;2023-04-24T01:55:22;9.20;70.60
48551;DHT22;34397;51.176;6.738;2023-04-24T01:57:55;9.30;70.40
48551;DHT22;34397;51.176;6.738;2023-04-24T02:00:27;9.20;70.20
48551;DHT22;34397;51.176;6.738;2023-04-24T02:02:59;9.30;70.20
48551;DHT22;34397;51.176;6.738;2023-04-24T02:05:32;9.30;70.20
48551;DHT22;34397;51.176;6.738;2023-04-24T02:08:05;9.30;70.30
48551;DHT22;34397;51.176;6.738;2023-04-24T02:10:37;9.30;70.90
48551;DHT22;34397;51.176;6.738;2023-04-24T02:13:09;9.30;70.40
48551;DHT22;34397;51.176;6.738;2023-04-24T02:15:41;9.30;71.10
48551;DHT22;34397;51.176;6.738;2023-04-24T02:18:13;9.30;70.60
48551;DHT22;34397;51.176;6.738;2023-04-24T02:20:45;9.40;70.60
48551;DHT22;34397;51.176;6.738;2023-04-24T02:23:19;9.40;70.00
48551;DHT22;34397;51.176;6.738;2023-04-24T02:25:51;9.40;70.20
48551;DHT22;34397;51.176;6.738;2023-04-24T02:28:23;9.40;70.10
48551;DHT22;34397;51.176;6.738;2023-04-24T02:30:55;9.40;70.00
48551;DHT22;34397;51.176;6.738;2023-04-24T02:33:27;9.40;70.10
48551;DHT22;34397;51.176;6.738;2023-04-24T02:35:59;9.40;70.70
48551;DHT22;34397;51.176;6.738;2023-04-24T02:38:33;9.50;70.40
48551;DHT22;34397;51.176;6.738;2023-04-24T02:41:05;9.40;70.70
48551;DHT22;34397;51.176;6.738;2023-04-24T02:43:37;9.50;71.00
48551;DHT22;34397;51.176;6.738;2023-04-24T02:46:09;9.50;70.90
48551;DHT22;34397;51.176;6.738;2023-04-24T02:48:41;9.50;70.70
48551;DHT22;34397;51.176;6.738;2023-04-24T02:51:13;9.50;70.60
48551;DHT22;34397;51.176;6.738;2023-04-24T02:53:46;9.50;70.10
48551;DHT22;34397;51.176;6.738;2023-04-24T02:56:20;9.50;70.70
48551;DHT22;34397;51.176;6.738;2023-04-24T02:58:51;9.50;70.30
48551;DHT22;34397;51.176;6.738;2023-04-24T03:01:23;9.60;70.60
48551;DHT22;34397;51.176;6.738;2023-04-24T03:03:55;9.60;70.40
48551;DHT22;34397;51.176;6.738;2023-04-24T03:06:27;9.60;70.50
48551;DHT22;34397;51.176;6.738;2023-04-24T03:09:00;9.60;70.10
48551;DHT22;34397;51.176;6.738;2023-04-24T03:11:33;9.60;70.20
48551;DHT22;34397;51.176;6.738;2023-04-24T03:14:07;9.60;70.20
48551;DHT22;34397;51.176;6.738;2023-04-24T03:16:39;9.60;70.70
48551;DHT22;34397;51.176;6.738;2023-04-24T03:19:11;9.60;70.80
48551;DHT22;34397;51.176;6.738;2023-04-24T03:21:44;9.70;70.90
48551;DHT22;34397;51.176;6.738;2023-04-24T03:24:17;9.70;70.50
48551;DHT22;34397;51.176;6.738;2023-04-24T03:26:49;9.70;70.00
48551;DHT22;34397;51.176;6.738;2023-04-24T03:29:21;9.70;70.20
48551;DHT22;34397;51.176;6.738;2023-04-24T03:31:52;9.70;70.10
48551;DHT22;34397;51.176;6.738;2023-04-24T03:34:24;9.70;70.20
48551;DHT22;34397;51.176;6.738;2023-04-24T03:36:56;9.70;69.60
48551;DHT22;34397;51.176;6.738;2023-04-24T03:39:29;9.70;70.00
48551;DHT22;34397;51.176;6.738;2023-04-24T03:42:01;9.70;69.30
48551;DHT22;34397;51.176;6.738;2023-04-24T03:44:33;9.70;69.80
48551;DHT22;34397;51.176;6.738;2023-04-24T03:47:05;9.70;69.70
48551;DHT22;34397;51.176;6.738;2023-04-24T03:49:37;9.70;69.20
48551;DHT22;34397;51.176;6.738;2023-04-24T03:52:09;9.70;69.00
48551;DHT22;34397;51.176;6.738;2023-04-24T03:54:45;9.60;69.50
48551;DHT22;34397;51.176;6.738;2023-04-24T03:57:18;9.60;69.50
48551;DHT22;34397;51.176;6.738;2023-04-24T03:59:50;9.60;69.20
48551;DHT22;34397;51.176;6.738;2023-04-24T04:02:23;9.60;69.00
48551;DHT22;34397;51.176;6.738;2023-04-24T04:04:58;9.60;69.50
48551;DHT22;34397;51.176;6.738;2023-04-24T04:07:30;9.60;69.60
48551;DHT22;34397;51.176;6.738;2023-04-24T04:10:04;9.60;69.00
48551;DHT22;34397;51.176;6.738;2023-04-24T04:12:37;9.60;69.40
48551;DHT22;34397;51.176;6.738;2023-04-24T04:15:10;9.60;69.70
48551;DHT22;34397;51.176;6.738;2023-04-24T04:17:42;9.50;69.60
48551;DHT22;34397;51.176;6.738;2023-04-24T04:20:14;9.50;69.60
48551;DHT22;34397;51.176;6.738;2023-04-24T04:22:46;9.50;69.70
48551;DHT22;34397;51.176;6.738;2023-04-24T04:25:22;9.50;69.90
48551;DHT22;34397;51.176;6.738;2023-04-24T04:27:54;9.50;70.20
48551;DHT22;34397;51.176;6.738;2023-04-24T04:30:26;9.50;70.10
48551;DHT22;34397;51.176;6.738;2023-04-24T04:32:59;9.50;70.00
48551;DHT22;34397;51.176;6.738;2023-04-24T04:35:31;9.50;69.90
48551;DHT22;34397;51.176;6.738;2023-04-24T04:38:03;9.50;69.70
48551;DHT22;34397;51.176;6.738;2023-04-24T04:40:40;9.50;69.50
48551;DHT22;34397;51.176;6.738;2023-04-24T04:43:12;9.50;69.40
48551;DHT22;34397;51.176;6.738;2023-04-24T04:45:45;9.50;69.40
48551;DHT22;34397;51.176;6.738;2023-04-24T04:48:18;9.50;69.60
48551;DHT22;34397;51.176;6.738;2023-04-24T04:50:50;9.50;70.00
48551;DHT22;34397;51.176;6.738;2023-04-24T04:53:24;9.50;69.90
48551;DHT22;34397;51.176;6.738;2023-04-24T04:55:57;9.50;69.90
48551;DHT22;34397;51.176;6.738;2023-04-24T04:58:30;9.40;70.10
48551;DHT22;34397;51.176;6.738;2023-04-24T05:01:02;9.40;69.90
48551;DHT22;34397;51.176;6.738;2023-04-24T05:03:34;9.50;70.00
48551;DHT22;34397;51.176;6.738;2023-04-24T05:06:06;9.50;69.50
48551;DHT22;34397;51.176;6.738;2023-04-24T05:08:38;9.50;69.50
48551;DHT22;34397;51.176;6.738;2023-04-24T05:11:11;9.50;68.90
48551;DHT22;34397;51.176;6.738;2023-04-24T05:13:43;9.50;69.20
48551;DHT22;34397;51.176;6.738;2023-04-24T05:16:15;9.50;69.70
48551;DHT22;34397;51.176;6.738;2023-04-24T05:18:47;9.50;69.80
48551;DHT22;34397;51.176;6.738;2023-04-24T05:21:22;9.40;70.60
48551;DHT22;34397;51.176;6.738;2023-04-24T05:23:55;9.40;71.00
48551;DHT22;34397;51.176;6.738;2023-04-24T05:26:29;9.40;71.60
48551;DHT22;34397;51.176;6.738;2023-04-24T05:29:01;9.30;72.70
48551;DHT22;34397;51.176;6.738;2023-04-24T05:31:33;9.20;73.70
48551;DHT22;34397;51.176;6.738;2023-04-24T05:34:05;9.20;74.60
48551;DHT22;34397;51.176;6.738;2023-04-24T05:36:37;9.10;75.40
48551;DHT22;34397;51.176;6.738;2023-04-24T05:39:09;9.00;75.80
48551;DHT22;34397;51.176;6.738;2023-04-24T05:41:42;8.90;75.80
48551;DHT22;34397;51.176;6.738;2023-04-24T05:44:14;8.90;76.30
48551;DHT22;34397;51.176;6.738;2023-04-24T05:46:52;8.80;76.50
48551;DHT22;34397;51.176;6.738;2023-04-24T05:49:26;8.80;76.70
48551;DHT22;34397;51.176;6.738;2023-04-24T05:51:58;8.70;76.50
48551;DHT22;34397;51.176;6.738;2023-04-24T05:54:30;8.70;76.80
48551;DHT22;34397;51.176;6.738;2023-04-24T05:57:03;8.60;76.70
48551;DHT22;34397;51.176;6.738;2023-04-24T05:59:38;8.60;76.90
48551;DHT22;34397;51.176;6.738;2023-04-24T06:02:10;8.60;76.80
48551;DHT22;34397;51.176;6.738;2023-04-24T06:04:41;8.60;76.50
48551;DHT22;34397;51.176;6.738;2023-04-24T06:07:14;8.60;76.80
48551;DHT22;34397;51.176;6.738;2023-04-24T06:09:45;8.60;76.80
48551;DHT22;34397;51.176;6.738;2023-04-24T06:12:19;8.60;76.40
48551;DHT22;34397;51.176;6.738;2023-04-24T06:14:51;8.60;77.30
48551;DHT22;34397;51.176;6.738;2023-04-24T06:17:23;8.50;76.90
48551;DHT22;34397;51.176;6.738;2023-04-24T06:19:54;8.50;77.70
48551;DHT22;34397;51.176;6.738;2023-04-24T06:22:26;8.50;78.10
48551;DHT22;34397;51.176;6.738;2023-04-24T06:24:59;8.50;78.40
48551;DHT22;34397;51.176;6.738;2023-04-24T06:27:33;8.50;78.90
48551;DHT22;34397;51.176;6.738;2023-04-24T06:30:06;8.50;79.00
48551;DHT22;34397;51.176;6.738;2023-04-24T06:32:39;8.50;79.30
48551;DHT22;34397;51.176;6.738;2023-04-24T06:35:11;8.40;79.50
48551;DHT22;34397;51.176;6.738;2023-04-24T06:37:43;8.40;80.20
48551;DHT22;34397;51.176;6.738;2023-04-24T06:40:15;8.30;81.60
48551;DHT22;34397;51.176;6.738;2023-04-24T06:42:50;8.40;81.10
48551;DHT22;34397;51.176;6.738;2023-04-24T06:45:22;8.40;81.80
48551;DHT22;34397;51.176;6.738;2023-04-24T06:47:53;8.30;81.60
48551;DHT22;34397;51.176;6.738;2023-04-24T06:50:26;8.20;82.10
48551;DHT22;34397;51.176;6.738;2023-04-24T06:52:57;8.20;82.70
48551;DHT22;34397;51.176;6.738;2023-04-24T06:55:29;8.10;82.70
48551;DHT22;34397;51.176;6.738;2023-04-24T06:58:02;8.10;83.10
48551;DHT22;34397;51.176;6.738;2023-04-24T07:00:34;8.00;84.00
48551;DHT22;34397;51.176;6.738;2023-04-24T07:03:06;8.00;84.10
48551;DHT22;34397;51.176;6.738;2023-04-24T07:05:38;8.00;84.20
48551;DHT22;34397;51.176;6.738;2023-04-24T07:08:10;8.00;84.10
48551;DHT22;34397;51.176;6.738;2023-04-24T07:10:43;8.10;84.00
48551;DHT22;34397;51.176;6.738;2023-04-24T07:13:17;8.20;84.00
48551;DHT22;34397;51.176;6.738;2023-04-24T07:15:49;8.20;83.90
48551;DHT22;34397;51.176;6.738;2023-04-24T07:18:23;8.20;83.40
48551;DHT22;34397;51.176;6.738;2023-04-24T07:20:55;8.30;83.40
48551;DHT22;34397;51.176;6.738;2023-04-24T07:23:27;8.30;83.30
48551;DHT22;34397;51.176;6.738;2023-04-24T07:25:58;8.40;81.90
48551;DHT22;34397;51.176;6.738;2023-04-24T07:28:32;8.40;81.60
48551;DHT22;34397;51.176;6.738;2023-04-24T07:31:04;8.50;81.70
48551;DHT22;34397;51.176;6.738;2023-04-24T07:33:35;8.40;81.70
48551;DHT22;34397;51.176;6.738;2023-04-24T07:36:07;8.40;80.90
48551;DHT22;34397;51.176;6.738;2023-04-24T07:38:46;8.50;79.70
48551;DHT22;34397;51.176;6.738;2023-04-24T07:41:18;8.40;79.20
48551;DHT22;34397;51.176;6.738;2023-04-24T07:43:52;8.40;76.80
48551;DHT22;34397;51.176;6.738;2023-04-24T07:46:24;8.20;78.50
48551;DHT22;34397;51.176;6.738;2023-04-24T07:49:00;8.10;79.10
48551;DHT22;34397;51.176;6.738;2023-04-24T07:51:32;8.00;79.40
48551;DHT22;34397;51.176;6.738;2023-04-24T07:54:08;7.90;79.80
48551;DHT22;34397;51.176;6.738;2023-04-24T07:56:41;7.90;80.10
48551;DHT22;34397;51.176;6.738;2023-04-24T07:59:16;7.80;80.00
48551;DHT22;34397;51.176;6.738;2023-04-24T08:01:47;7.80;79.90
48551;DHT22;34397;51.176;6.738;2023-04-24T08:04:27;7.70;79.10
48551;DHT22;34397;51.176;6.738;2023-04-24T08:06:58;7.60;80.00
48551;DHT22;34397;51.176;6.738;2023-04-24T08:09:30;7.50;80.60
48551;DHT22;34397;51.176;6.738;2023-04-24T08:12:02;7.50;80.80
48551;DHT22;34397;51.176;6.738;2023-04-24T08:14:51;7.50;81.60
48551;DHT22;34397;51.176;6.738;2023-04-24T08:17:23;7.40;82.20
48551;DHT22;34397;51.176;6.738;2023-04-24T08:19:56;7.40;82.80
48551;DHT22;34397;51.176;6.738;2023-04-24T08:22:40;7.40;82.70
48551;DHT22;34397;51.176;6.738;2023-04-24T08:25:23;7.50;83.20
48551;DHT22;34397;51.176;6.738;2023-04-24T08:27:55;7.50;83.20
48551;DHT22;34397;51.176;6.738;2023-04-24T08:30:29;7.60;83.10
48551;DHT22;34397;51.176;6.738;2023-04-24T08:33:01;7.60;83.10
48551;DHT22;34397;51.176;6.738;2023-04-24T08:35:33;7.70;83.00
48551;DHT22;34397;51.176;6.738;2023-04-24T08:38:08;7.70;82.20
48551;DHT22;34397;51.176;6.738;2023-04-24T08:40:40;7.80;82.30
48551;DHT22;34397;51.176;6.738;2023-04-24T08:43:21;7.90;81.50
48551;DHT22;34397;51.176;6.738;2023-04-24T08:45:56;8.00;81.30
48551;DHT22;34397;51.176;6.738;2023-04-24T08:48:35;8.00;80.70
48551;DHT22;34397;51.176;6.738;2023-04-24T08:51:08;8.10;80.10
48551;DHT22;34397;51.176;6.738;2023-04-24T08:53:41;8.20;80.00
48551;DHT22;34397;51.176;6.738;2023-04-24T08:56:13;8.20;79.80
48551;DHT22;34397;51.176;6.738;2023-04-24T08:58:45;8.20;80.00
48551;DHT22;34397;51.176;6.738;2023-04-24T09:01:19;8.30;80.20
48551;DHT22;34397;51.176;6.738;2023-04-24T09:03:52;8.30;79.80
48551;DHT22;34397;51.176;6.738;2023-04-24T09:06:24;8.30;80.10
48551;DHT22;34397;51.176;6.738;2023-04-24T09:09:00;8.30;79.40
48551;DHT22;34397;51.176;6.738;2023-04-24T09:11:33;8.30;79.40
48551;DHT22;34397;51.176;6.738;2023-04-24T09:14:06;8.40;79.70
48551;DHT22;34397;51.176;6.738;2023-04-24T09:16:41;8.30;80.10
48551;DHT22;34397;51.176;6.738;2023-04-24T09:19:14;8.30;80.60
48551;DHT22;34397;51.176;6.738;2023-04-24T09:21:46;8.30;80.60
48551;DHT22;34397;51.176;6.738;2023-04-24T09:24:19;8.30;80.70
48551;DHT22;34397;51.176;6.738;2023-04-24T09:26:56;8.30;80.30
48551;DHT22;34397;51.176;6.738;2023-04-24T09:29:29;8.40;80.40
48551;DHT22;34397;51.176;6.738;2023-04-24T09:35:11;8.40;80.20
48551;DHT22;34397;51.176;6.738;2023-04-24T09:37:47;8.40;80.00
48551;DHT22;34397;51.176;6.738;2023-04-24T09:40:21;8.40;79.80
48551;DHT22;34397;51.176;6.738;2023-04-24T09:42:55;8.50;79.30
48551;DHT22;34397;51.176;6.738;2023-04-24T09:45:28;8.50;79.20
48551;DHT22;34397;51.176;6.738;2023-04-24T09:48:03;8.50;79.30
48551;DHT22;34397;51.176;6.738;2023-04-24T09:50:38;8.50;79.40
48551;DHT22;34397;51.176;6.738;2023-04-24T09:53:10;8.50;82.20
48551;DHT22;34397;51.176;6.738;2023-04-24T09:55:45;8.40;82.70
48551;DHT22;34397;51.176;6.738;2023-04-24T09:58:19;8.20;84.90
48551;DHT22;34397;51.176;6.738;2023-04-24T10:00:56;8.20;84.60
48551;DHT22;34397;51.176;6.738;2023-04-24T10:03:30;8.20;84.60
48551;DHT22;34397;51.176;6.738;2023-04-24T10:06:04;8.20;83.90
48551;DHT22;34397;51.176;6.738;2023-04-24T10:08:39;8.30;83.10
48551;DHT22;34397;51.176;6.738;2023-04-24T10:11:11;8.40;82.90
48551;DHT22;34397;51.176;6.738;2023-04-24T10:13:43;8.40;82.60
48551;DHT22;34397;51.176;6.738;2023-04-24T10:16:15;8.50;82.10
48551;DHT22;34397;51.176;6.738;2023-04-24T10:18:48;8.60;81.40
48551;DHT22;34397;51.176;6.738;2023-04-24T10:21:23;8.70;81.30
48551;DHT22;34397;51.176;6.738;2023-04-24T10:23:55;8.70;81.30
48551;DHT22;34397;51.176;6.738;2023-04-24T10:26:27;8.80;81.60
48551;DHT22;34397;51.176;6.738;2023-04-24T10:29:01;8.80;81.20
48551;DHT22;34397;51.176;6.738;2023-04-24T10:31:33;8.80;81.60
48551;DHT22;34397;51.176;6.738;2023-04-24T10:34:06;8.90;80.80
48551;DHT22;34397;51.176;6.738;2023-04-24T10:36:42;8.90;80.30
48551;DHT22;34397;51.176;6.738;2023-04-24T10:39:17;8.90;79.60
48551;DHT22;34397;51.176;6.738;2023-04-24T10:41:50;9.00;79.80
48551;DHT22;34397;51.176;6.738;2023-04-24T10:44:22;9.00;80.60
48551;DHT22;34397;51.176;6.738;2023-04-24T10:46:55;9.00;79.90
48551;DHT22;34397;51.176;6.738;2023-04-24T10:49:31;9.00;79.80
48551;DHT22;34397;51.176;6.738;2023-04-24T10:52:04;9.10;79.40
48551;DHT22;34397;51.176;6.738;2023-04-24T10:54:41;9.20;79.70
48551;DHT22;34397;51.176;6.738;2023-04-24T10:57:28;9.30;78.30
48551;DHT22;34397;51.176;6.738;2023-04-24T11:00:13;9.40;79.20
48551;DHT22;34397;51.176;6.738;2023-04-24T11:02:48;9.50;77.30
48551;DHT22;34397;51.176;6.738;2023-04-24T11:05:21;9.50;76.90
48551;DHT22;34397;51.176;6.738;2023-04-24T11:08:12;9.60;76.50
48551;DHT22;34397;51.176;6.738;2023-04-24T11:10:45;9.50;76.70
48551;DHT22;34397;51.176;6.738;2023-04-24T11:13:21;9.60;76.40
48551;DHT22;34397;51.176;6.738;2023-04-24T11:16:13;9.60;75.80
48551;DHT22;34397;51.176;6.738;2023-04-24T11:18:50;9.60;76.40
48551;DHT22;34397;51.176;6.738;2023-04-24T11:21:24;9.70;75.80
48551;DHT22;34397;51.176;6.738;2023-04-24T11:23:58;9.70;74.90
48551;DHT22;34397;51.176;6.738;2023-04-24T11:26:32;9.80;74.80
48551;DHT22;34397;51.176;6.738;2023-04-24T11:29:08;9.80;73.90
48551;DHT22;34397;51.176;6.738;2023-04-24T11:31:43;9.80;74.80
48551;DHT22;34397;51.176;6.738;2023-04-24T11:34:20;9.80;75.50
48551;DHT22;34397;51.176;6.738;2023-04-24T11:36:53;9.90;75.40
48551;DHT22;34397;51.176;6.738;2023-04-24T11:39:26;10.00;74.30
48551;DHT22;34397;51.176;6.738;2023-04-24T11:42:02;10.00;73.70
48551;DHT22;34397;51.176;6.738;2023-04-24T11:44:37;10.10;74.50
48551;DHT22;34397;51.176;6.738;2023-04-24T11:47:09;10.20;73.40
48551;DHT22;34397;51.176;6.738;2023-04-24T11:49:41;10.20;72.90
48551;DHT22;34397;51.176;6.738;2023-04-24T11:52:15;10.30;73.30
48551;DHT22;34397;51.176;6.738;2023-04-24T11:54:50;10.40;72.90
48551;DHT22;34397;51.176;6.738;2023-04-24T11:57:22;10.40;72.60
48551;DHT22;34397;51.176;6.738;2023-04-24T11:59:58;10.40;72.90
48551;DHT22;34397;51.176;6.738;2023-04-24T12:02:33;10.50;72.90
48551;DHT22;34397;51.176;6.738;2023-04-24T12:05:06;10.50;73.50
48551;DHT22;34397;51.176;6.738;2023-04-24T12:07:40;10.60;73.60
48551;DHT22;34397;51.176;6.738;2023-04-24T12:10:20;10.70;71.80
48551;DHT22;34397;51.176;6.738;2023-04-24T12:12:52;10.70;70.50
48551;DHT22;34397;51.176;6.738;2023-04-24T12:15:24;10.70;70.00
48551;DHT22;34397;51.176;6.738;2023-04-24T12:17:57;10.70;70.20
48551;DHT22;34397;51.176;6.738;2023-04-24T12:20:30;10.70;68.50
48551;DHT22;34397;51.176;6.738;2023-04-24T12:23:03;10.70;69.30
48551;DHT22;34397;51.176;6.738;2023-04-24T12:25:38;10.70;69.00
48551;DHT22;34397;51.176;6.738;2023-04-24T12:28:12;10.70;67.40
48551;DHT22;34397;51.176;6.738;2023-04-24T12:30:47;10.70;67.20
48551;DHT22;34397;51.176;6.738;2023-04-24T12:33:20;10.60;66.90
48551;DHT22;34397;51.176;6.738;2023-04-24T12:35:53;10.60;68.30
48551;DHT22;34397;51.176;6.738;2023-04-24T12:38:26;10.60;67.90
48551;DHT22;34397;51.176;6.738;2023-04-24T12:41:05;10.70;67.10
48551;DHT22;34397;51.176;6.738;2023-04-24T12:43:38;10.70;66.60
48551;DHT22;34397;51.176;6.738;2023-04-24T12:46:22;10.70;66.70
48551;DHT22;34397;51.176;6.738;2023-04-24T12:48:54;10.70;65.80
48551;DHT22;34397;51.176;6.738;2023-04-24T12:51:26;10.80;65.10
48551;DHT22;34397;51.176;6.738;2023-04-24T12:53:58;10.90;63.00
48551;DHT22;34397;51.176;6.738;2023-04-24T12:56:32;11.10;63.60
48551;DHT22;34397;51.176;6.738;2023-04-24T12:59:04;11.20;63.90
48551;DHT22;34397;51.176;6.738;2023-04-24T13:01:35;11.30;63.40
48551;DHT22;34397;51.176;6.738;2023-04-24T13:04:07;11.30;62.70
48551;DHT22;34397;51.176;6.738;2023-04-24T13:06:39;11.30;62.70
48551;DHT22;34397;51.176;6.738;2023-04-24T13:09:12;11.20;63.00
48551;DHT22;34397;51.176;6.738;2023-04-24T13:11:45;11.20;61.90
48551;DHT22;34397;51.176;6.738;2023-04-24T13:14:20;11.20;62.70
48551;DHT22;34397;51.176;6.738;2023-04-24T13:16:52;11.20;62.30
48551;DHT22;34397;51.176;6.738;2023-04-24T13:19:24;11.30;61.50
48551;DHT22;34397;51.176;6.738;2023-04-24T13:21:57;11.30;62.80
48551;DHT22;34397;51.176;6.738;2023-04-24T13:24:29;11.50;62.30
48551;DHT22;34397;51.176;6.738;2023-04-24T13:27:03;11.50;62.10
48551;DHT22;34397;51.176;6.738;2023-04-24T13:29:35;11.50;62.10
48551;DHT22;34397;51.176;6.738;2023-04-24T13:32:08;11.70;61.30
48551;DHT22;34397;51.176;6.738;2023-04-24T13:34:39;11.80;60.30
48551;DHT22;34397;51.176;6.738;2023-04-24T13:37:11;11.90;63.80
48551;DHT22;34397;51.176;6.738;2023-04-24T13:39:43;12.10;61.30
48551;DHT22;34397;51.176;6.738;2023-04-24T13:42:16;12.20;60.90
48551;DHT22;34397;51.176;6.738;2023-04-24T13:44:49;12.30;58.90
48551;DHT22;34397;51.176;6.738;2023-04-24T13:47:21;12.30;60.80
48551;DHT22;34397;51.176;6.738;2023-04-24T13:49:53;12.30;60.00
48551;DHT22;34397;51.176;6.738;2023-04-24T13:52:25;12.40;59.10
48551;DHT22;34397;51.176;6.738;2023-04-24T13:54:57;12.30;59.00
48551;DHT22;34397;51.176;6.738;2023-04-24T13:57:30;12.30;58.70
48551;DHT22;34397;51.176;6.738;2023-04-24T14:00:02;12.20;59.30
48551;DHT22;34397;51.176;6.738;2023-04-24T14:02:39;12.10;58.20
48551;DHT22;34397;51.176;6.738;2023-04-24T14:05:12;12.00;59.30
48551;DHT22;34397;51.176;6.738;2023-04-24T14:07:44;11.90;58.80
48551;DHT22;34397;51.176;6.738;2023-04-24T14:10:16;11.80;59.80
48551;DHT22;34397;51.176;6.738;2023-04-24T14:12:50;11.70;60.20
48551;DHT22;34397;51.176;6.738;2023-04-24T14:15:23;11.60;60.30
48551;DHT22;34397;51.176;6.738;2023-04-24T14:17:55;11.60;59.30
48551;DHT22;34397;51.176;6.738;2023-04-24T14:20:27;11.60;60.80
48551;DHT22;34397;51.176;6.738;2023-04-24T14:22:59;11.60;60.00
48551;DHT22;34397;51.176;6.738;2023-04-24T14:25:31;11.70;60.20
48551;DHT22;34397;51.176;6.738;2023-04-24T14:28:05;11.70;59.40
48551;DHT22;34397;51.176;6.738;2023-04-24T14:30:37;11.60;59.30
48551;DHT22;34397;51.176;6.738;2023-04-24T14:33:17;11.60;59.80
48551;DHT22;34397;51.176;6.738;2023-04-24T14:35:52;11.60;58.40
48551;DHT22;34397;51.176;6.738;2023-04-24T14:38:24;11.70;58.40
48551;DHT22;34397;51.176;6.738;2023-04-24T14:40:56;11.70;59.10
48551;DHT22;34397;51.176;6.738;2023-04-24T14:43:29;11.80;58.70
48551;DHT22;34397;51.176;6.738;2023-04-24T14:46:01;11.80;59.00
48551;DHT22;34397;51.176;6.738;2023-04-24T14:48:33;12.00;59.80
48551;DHT22;34397;51.176;6.738;2023-04-24T14:51:05;12.10;59.40
48551;DHT22;34397;51.176;6.738;2023-04-24T14:53:37;12.30;58.30
48551;DHT22;34397;51.176;6.738;2023-04-24T14:56:09;12.40;58.40
48551;DHT22;34397;51.176;6.738;2023-04-24T14:58:42;12.50;58.40
48551;DHT22;34397;51.176;6.738;2023-04-24T15:01:14;12.60;56.60
48551;DHT22;34397;51.176;6.738;2023-04-24T15:03:46;12.70;57.80
48551;DHT22;34397;51.176;6.738;2023-04-24T15:06:18;12.80;57.10
48551;DHT22;34397;51.176;6.738;2023-04-24T15:08:50;12.90;56.80
48551;DHT22;34397;51.176;6.738;2023-04-24T15:11:22;13.00;53.80
48551;DHT22;34397;51.176;6.738;2023-04-24T15:13:55;13.10;55.60
48551;DHT22;34397;51.176;6.738;2023-04-24T15:16:27;13.20;55.50
48551;DHT22;34397;51.176;6.738;2023-04-24T15:18:59;13.20;53.10
48551;DHT22;34397;51.176;6.738;2023-04-24T15:21:32;13.30;54.50
48551;DHT22;34397;51.176;6.738;2023-04-24T15:24:04;13.30;54.60
48551;DHT22;34397;51.176;6.738;2023-04-24T15:26:36;13.30;50.70
48551;DHT22;34397;51.176;6.738;2023-04-24T15:29:09;12.90;50.40
48551;DHT22;34397;51.176;6.738;2023-04-24T15:31:41;12.80;52.10
48551;DHT22;34397;51.176;6.738;2023-04-24T15:34:13;12.70;51.20
48551;DHT22;34397;51.176;6.738;2023-04-24T15:36:45;12.50;51.30
48551;DHT22;34397;51.176;6.738;2023-04-24T15:39:17;12.40;53.20
48551;DHT22;34397;51.176;6.738;2023-04-24T15:41:56;12.30;52.70
48551;DHT22;34397;51.176;6.738;2023-04-24T15:44:33;12.20;53.20
48551;DHT22;34397;51.176;6.738;2023-04-24T15:47:05;12.20;53.80
48551;DHT22;34397;51.176;6.738;2023-04-24T15:49:37;12.10;54.50
48551;DHT22;34397;51.176;6.738;2023-04-24T15:52:09;12.10;54.40
48551;DHT22;34397;51.176;6.738;2023-04-24T15:54:58;12.10;54.00
48551;DHT22;34397;51.176;6.738;2023-04-24T15:57:44;12.00;54.70
48551;DHT22;34397;51.176;6.738;2023-04-24T16:00:18;12.10;54.00
48551;DHT22;34397;51.176;6.738;2023-04-24T16:02:50;12.10;53.50
48551;DHT22;34397;51.176;6.738;2023-04-24T16:05:22;12.20;53.80
48551;DHT22;34397;51.176;6.738;2023-04-24T16:07:54;12.20;53.50
48551;DHT22;34397;51.176;6.738;2023-04-24T16:10:26;12.20;54.00
48551;DHT22;34397;51.176;6.738;2023-04-24T16:12:58;12.20;53.50
48551;DHT22;34397;51.176;6.738;2023-04-24T16:15:38;12.30;54.00
48551;DHT22;34397;51.176;6.738;2023-04-24T16:18:10;12.30;53.80
48551;DHT22;34397;51.176;6.738;2023-04-24T16:20:42;12.30;53.10